createdAt,value
2019-01-25T00:00:28.897Z,6.10
2019-01-25T00:03:00.269Z,5.92
2019-01-25T00:05:28.330Z,6.25
2019-01-25T00:07:56.395Z,6.55
2019-01-25T00:10:24.493Z,5.78
2019-01-25T00:12:52.531Z,6.30
2019-01-25T00:15:22.319Z,6.80
2019-01-25T00:17:51.893Z,5.87
2019-01-25T00:20:21.445Z,5.95
2019-01-25T00:22:49.618Z,5.90
2019-01-25T00:25:17.672Z,6.03
2019-01-25T00:27:45.751Z,7.08
2019-01-25T00:30:15.925Z,6.30
2019-01-25T00:32:45.065Z,5.87
2019-01-25T00:35:13.128Z,7.25
2019-01-25T00:37:41.859Z,6.67
2019-01-25T00:40:11.715Z,6.85
2019-01-25T00:42:39.887Z,6.60
2019-01-25T00:45:09.335Z,6.23
2019-01-25T00:47:37.699Z,6.08
2019-01-25T00:50:11.508Z,6.25
2019-01-25T00:52:39.662Z,5.95
2019-01-25T00:55:08.673Z,6.00
2019-01-25T00:57:36.762Z,5.92
2019-01-25T01:00:11.800Z,5.37
2019-01-25T01:02:40.225Z,5.75
2019-01-25T01:05:08.595Z,5.78
2019-01-25T01:07:36.716Z,6.42
2019-01-25T01:10:06.016Z,5.78
2019-01-25T01:12:34.061Z,5.23
2019-01-25T01:15:02.758Z,4.65
2019-01-25T01:17:31.082Z,5.25
2019-01-25T01:19:59.149Z,5.22
2019-01-25T01:22:27.289Z,5.53
2019-01-25T01:24:55.343Z,4.97
2019-01-25T01:27:23.461Z,5.20
2019-01-25T01:29:54.554Z,6.00
2019-01-25T01:32:22.693Z,5.37
2019-01-25T01:34:50.777Z,5.37
2019-01-25T01:37:21.371Z,5.78
2019-01-25T01:39:49.779Z,5.10
2019-01-25T01:42:17.807Z,5.75
2019-01-25T01:44:45.878Z,6.30
2019-01-25T01:47:13.937Z,5.53
2019-01-25T01:49:42.096Z,5.55
2019-01-25T01:52:10.140Z,5.20
2019-01-25T01:54:38.205Z,4.78
2019-01-25T01:57:06.279Z,5.03
2019-01-25T01:59:34.341Z,4.85
2019-01-25T02:02:03.008Z,4.97
2019-01-25T02:04:31.186Z,4.75
2019-01-25T02:06:59.235Z,5.35
2019-01-25T02:09:27.284Z,5.15
2019-01-25T02:11:55.358Z,5.58
2019-01-25T02:14:23.454Z,5.05
2019-01-25T02:16:51.510Z,5.35
2019-01-25T02:19:20.105Z,4.60
2019-01-25T02:21:48.155Z,5.35
2019-01-25T02:24:16.202Z,5.00
2019-01-25T02:26:44.257Z,5.12
2019-01-25T02:29:12.260Z,5.78
2019-01-25T02:31:40.320Z,4.87
2019-01-25T02:34:08.352Z,5.62
2019-01-25T02:36:36.404Z,5.40
2019-01-25T02:39:07.352Z,4.83
2019-01-25T02:41:35.432Z,5.47
2019-01-25T02:44:04.183Z,5.08
2019-01-25T02:46:32.246Z,5.03
2019-01-25T02:49:00.350Z,5.20
2019-01-25T02:51:28.408Z,5.53
2019-01-25T02:53:56.456Z,5.00
2019-01-25T02:56:24.634Z,4.80
2019-01-25T02:58:52.720Z,5.05
2019-01-25T03:01:20.777Z,5.12
2019-01-25T03:03:48.814Z,5.23
2019-01-25T03:06:16.971Z,4.90
2019-01-25T03:08:46.651Z,4.72
2019-01-25T03:11:14.891Z,4.35
2019-01-25T03:13:43.254Z,5.58
2019-01-25T03:16:11.336Z,4.97
2019-01-25T03:18:39.352Z,4.95
2019-01-25T03:21:07.402Z,4.58
2019-01-25T03:23:35.476Z,5.03
2019-01-25T03:26:03.610Z,4.97
2019-01-25T03:28:31.921Z,4.53
2019-01-25T03:31:01.089Z,4.50
2019-01-25T03:33:29.154Z,4.37
2019-01-25T03:35:57.265Z,4.37
2019-01-25T03:38:25.440Z,5.35
2019-01-25T03:40:55.091Z,4.62
2019-01-25T03:43:23.584Z,4.83
2019-01-25T03:45:51.637Z,4.22
2019-01-25T03:48:21.737Z,4.67
2019-01-25T03:50:49.841Z,4.35
2019-01-25T03:53:19.225Z,4.60
2019-01-25T03:55:47.268Z,4.87
2019-01-25T03:58:15.311Z,4.62
2019-01-25T04:00:43.377Z,4.78
2019-01-25T04:03:11.425Z,4.85
2019-01-25T04:05:39.574Z,5.33
2019-01-25T04:08:07.755Z,4.97
2019-01-25T04:10:35.841Z,5.08
2019-01-25T04:13:04.206Z,4.85
2019-01-25T04:15:34.068Z,4.67
2019-01-25T04:18:02.462Z,4.65
2019-01-25T04:20:30.499Z,4.50
2019-01-25T04:22:58.578Z,4.92
2019-01-25T04:25:26.849Z,4.70
2019-01-25T04:27:54.937Z,4.72
2019-01-25T04:30:25.820Z,5.12
2019-01-25T04:32:54.186Z,5.05
2019-01-25T04:35:22.348Z,4.60
2019-01-25T04:37:50.727Z,4.75
2019-01-25T04:40:18.995Z,4.35
2019-01-25T04:42:47.478Z,5.00
2019-01-25T04:45:17.684Z,4.72
2019-01-25T04:47:45.830Z,4.53
2019-01-25T04:50:19.806Z,5.00
2019-01-25T04:52:48.338Z,4.53
2019-01-25T04:55:23.600Z,4.70
2019-01-25T04:57:51.700Z,4.70
2019-01-25T05:00:21.217Z,5.75
2019-01-25T05:02:57.447Z,4.70
2019-01-25T05:05:26.076Z,4.87
2019-01-25T05:08:04.648Z,3.95
2019-01-25T05:10:32.702Z,4.35
2019-01-25T05:13:00.810Z,4.60
2019-01-25T05:15:29.859Z,4.17
2019-01-25T05:17:59.021Z,4.53
2019-01-25T05:20:28.207Z,3.72
2019-01-25T05:22:57.987Z,3.90
2019-01-25T05:25:26.917Z,4.37
2019-01-25T05:27:55.061Z,4.25
2019-01-25T05:30:24.062Z,4.75
2019-01-25T05:32:52.139Z,3.98
2019-01-25T05:35:21.869Z,4.17
2019-01-25T05:37:49.949Z,4.25
2019-01-25T05:40:23.599Z,4.28
2019-01-25T05:42:51.804Z,4.35
2019-01-25T05:45:21.665Z,5.05
2019-01-25T05:47:49.747Z,4.40
2019-01-25T05:50:17.779Z,4.67
2019-01-25T05:52:46.945Z,4.40
2019-01-25T05:55:17.546Z,4.25
2019-01-25T05:57:45.950Z,4.42
2019-01-25T06:00:17.742Z,3.87
2019-01-25T06:02:45.877Z,4.00
2019-01-25T06:05:14.016Z,4.47
2019-01-25T06:07:42.108Z,3.77
2019-01-25T06:10:10.760Z,4.58
2019-01-25T06:12:39.131Z,3.90
2019-01-25T06:15:07.788Z,4.10
2019-01-25T06:17:35.939Z,4.80
2019-01-25T06:20:05.751Z,4.53
2019-01-25T06:22:33.790Z,4.10
2019-01-25T06:25:01.946Z,4.37
2019-01-25T06:27:36.083Z,3.92
2019-01-25T06:30:10.049Z,4.15
2019-01-25T06:32:38.168Z,3.92
2019-01-25T06:35:06.394Z,4.67
2019-01-25T06:37:34.433Z,4.47
2019-01-25T06:40:03.392Z,4.67
2019-01-25T06:42:31.412Z,4.17
2019-01-25T06:44:59.592Z,4.25
2019-01-25T06:47:27.663Z,4.65
2019-01-25T06:49:55.695Z,4.60
2019-01-25T06:52:23.739Z,4.28
2019-01-25T06:54:51.797Z,4.60
2019-01-25T06:57:26.178Z,4.50
2019-01-25T06:59:54.292Z,3.75
2019-01-25T07:02:27.621Z,4.65
2019-01-25T07:04:55.667Z,4.53
2019-01-25T07:07:28.619Z,4.58
2019-01-25T07:09:56.676Z,4.65
2019-01-25T07:12:24.733Z,4.25
2019-01-25T07:14:52.795Z,4.40
2019-01-25T07:17:22.232Z,4.67
2019-01-25T07:19:50.299Z,4.37
2019-01-25T07:22:18.365Z,4.53
2019-01-25T07:24:46.809Z,3.90
2019-01-25T07:27:14.928Z,4.45
2019-01-25T07:29:42.986Z,4.65
2019-01-25T07:32:11.048Z,4.95
2019-01-25T07:34:39.129Z,4.37
2019-01-25T07:37:07.259Z,4.85
2019-01-25T07:39:35.371Z,5.58
2019-01-25T07:42:03.436Z,5.35
2019-01-25T07:44:31.531Z,4.33
2019-01-25T07:46:59.792Z,4.80
2019-01-25T07:49:28.992Z,5.30
2019-01-25T07:51:57.065Z,5.37
2019-01-25T07:54:25.108Z,4.67
2019-01-25T07:56:53.188Z,4.80
2019-01-25T07:59:22.826Z,4.92
2019-01-25T08:01:51.045Z,4.58
2019-01-25T08:04:22.019Z,5.10
2019-01-25T08:06:50.320Z,5.25
2019-01-25T08:09:18.370Z,4.97
2019-01-25T08:11:46.418Z,5.28
2019-01-25T08:14:14.473Z,3.98
2019-01-25T08:16:42.625Z,4.78
2019-01-25T08:19:10.859Z,4.53
2019-01-25T08:21:39.087Z,4.92
2019-01-25T08:24:07.212Z,4.37
2019-01-25T08:26:35.322Z,4.40
2019-01-25T08:29:04.569Z,5.03
2019-01-25T08:31:32.788Z,4.53
2019-01-25T08:34:01.139Z,5.25
2019-01-25T08:36:31.087Z,4.78
2019-01-25T08:38:59.143Z,4.25
2019-01-25T08:41:27.257Z,4.67
2019-01-25T08:43:55.430Z,5.05
2019-01-25T08:46:23.473Z,4.58
2019-01-25T08:48:51.898Z,4.62
2019-01-25T08:51:20.023Z,5.58
2019-01-25T08:53:48.601Z,5.28
2019-01-25T08:56:16.757Z,5.08
2019-01-25T08:58:45.825Z,4.87
2019-01-25T09:01:14.198Z,4.72
2019-01-25T09:03:42.370Z,5.00
2019-01-25T09:06:10.435Z,5.08
2019-01-25T09:08:38.517Z,4.90
2019-01-25T09:11:06.577Z,5.03
2019-01-25T09:13:35.762Z,5.78
2019-01-25T09:16:04.183Z,5.10
2019-01-25T09:18:33.572Z,5.35
2019-01-25T09:21:01.636Z,5.15
2019-01-25T09:23:29.696Z,5.55
2019-01-25T09:26:00.995Z,4.97
2019-01-25T09:28:29.543Z,6.78
2019-01-25T09:30:57.624Z,5.12
2019-01-25T09:33:25.913Z,4.87
2019-01-25T09:35:54.305Z,5.58
2019-01-25T09:38:22.362Z,5.78
2019-01-25T09:40:50.447Z,5.20
2019-01-25T09:43:18.900Z,5.42
2019-01-25T09:45:46.951Z,5.45
2019-01-25T09:48:14.992Z,4.80
2019-01-25T09:50:43.227Z,5.25
2019-01-25T09:53:12.738Z,5.20
2019-01-25T09:55:42.255Z,5.55
2019-01-25T09:58:13.823Z,5.65
2019-01-25T10:00:58.979Z,5.50
2019-01-25T10:03:27.030Z,4.80
2019-01-25T10:05:55.115Z,5.28
2019-01-25T10:08:23.192Z,4.95
2019-01-25T10:10:51.229Z,5.83
2019-01-25T10:13:19.290Z,5.40
2019-01-25T10:15:47.339Z,5.00
2019-01-25T10:18:15.446Z,5.28
2019-01-25T10:20:43.529Z,4.95
2019-01-25T10:23:11.530Z,5.35
2019-01-25T10:25:39.577Z,5.33
2019-01-25T10:28:07.627Z,5.60
2019-01-25T10:30:35.631Z,4.78
2019-01-25T10:33:03.785Z,5.00
2019-01-25T10:35:31.956Z,5.22
2019-01-25T10:37:59.999Z,5.58
2019-01-25T10:40:28.067Z,6.15
2019-01-25T10:42:56.148Z,5.33
2019-01-25T10:45:29.493Z,5.50
2019-01-25T10:47:57.596Z,5.15
2019-01-25T10:50:25.647Z,5.45
2019-01-25T10:52:53.756Z,5.70
2019-01-25T10:55:21.825Z,5.17
2019-01-25T10:57:51.513Z,5.87
2019-01-25T11:00:19.968Z,5.70
2019-01-25T11:02:48.075Z,5.67
2019-01-25T11:05:19.426Z,5.65
2019-01-25T11:07:48.563Z,5.78
2019-01-25T11:10:16.873Z,5.05
2019-01-25T11:12:44.969Z,5.05
2019-01-25T11:15:17.508Z,5.70
2019-01-25T11:17:45.699Z,5.85
2019-01-25T11:20:17.350Z,5.05
2019-01-25T11:22:46.646Z,5.42
2019-01-25T11:25:26.037Z,5.62
2019-01-25T11:27:54.554Z,4.50
2019-01-25T11:30:22.686Z,5.58
2019-01-25T11:32:50.777Z,5.15
2019-01-25T11:35:18.805Z,5.15
2019-01-25T11:37:46.921Z,5.80
2019-01-25T11:40:27.219Z,4.65
2019-01-25T11:42:55.810Z,4.72
2019-01-25T11:45:25.261Z,5.05
2019-01-25T11:47:53.350Z,5.12
2019-01-25T11:50:21.519Z,5.28
2019-01-25T11:52:49.597Z,5.53
2019-01-25T11:55:18.308Z,4.72
2019-01-25T11:57:46.792Z,5.47
2019-01-25T12:00:21.664Z,5.37
2019-01-25T12:02:49.913Z,4.50
2019-01-25T12:05:20.859Z,5.10
2019-01-25T12:07:49.259Z,4.87
2019-01-25T12:10:20.798Z,5.22
2019-01-25T12:12:48.879Z,5.15
2019-01-25T12:15:18.739Z,4.65
2019-01-25T12:17:46.808Z,4.87
2019-01-25T12:20:23.988Z,5.00
2019-01-25T12:22:52.155Z,4.90
2019-01-25T12:25:20.215Z,5.10
2019-01-25T12:27:48.383Z,5.00
2019-01-25T12:30:37.898Z,4.85
2019-01-25T12:33:06.703Z,5.37
2019-01-25T12:35:38.072Z,4.72
2019-01-25T12:38:06.267Z,4.67
2019-01-25T12:40:34.379Z,4.90
2019-01-25T12:43:03.311Z,5.03
2019-01-25T12:45:31.597Z,5.00
2019-01-25T12:47:59.785Z,4.70
2019-01-25T12:50:57.611Z,5.10
2019-01-25T12:53:26.996Z,4.20
2019-01-25T12:55:55.071Z,4.28
2019-01-25T12:58:23.232Z,4.37
2019-01-25T13:00:51.935Z,4.65
2019-01-25T13:03:20.058Z,4.28
2019-01-25T13:05:48.210Z,4.28
2019-01-25T13:08:16.344Z,3.98
2019-01-25T13:10:45.608Z,4.62
2019-01-25T13:13:13.673Z,4.67
2019-01-25T13:15:42.043Z,4.60
2019-01-25T13:18:10.128Z,5.30
2019-01-25T13:20:42.049Z,5.30
2019-01-25T13:23:10.283Z,5.00
2019-01-25T13:25:38.440Z,4.70
2019-01-25T13:28:06.607Z,4.20
2019-01-25T13:30:34.769Z,4.40
2019-01-25T13:33:03.040Z,4.50
2019-01-25T13:35:31.144Z,4.65
2019-01-25T13:37:59.242Z,4.55
2019-01-25T13:40:27.566Z,4.62
2019-01-25T13:42:55.744Z,4.22
2019-01-25T13:45:25.547Z,4.37
2019-01-25T13:47:53.851Z,4.42
2019-01-25T13:50:24.747Z,4.45
2019-01-25T13:52:52.800Z,4.60
2019-01-25T13:55:21.113Z,4.35
2019-01-25T13:57:49.258Z,4.42
2019-01-25T14:00:22.935Z,4.20
2019-01-25T14:02:52.244Z,4.15
2019-01-25T14:05:20.431Z,4.45
2019-01-25T14:07:48.523Z,5.10
2019-01-25T14:10:20.936Z,4.47
2019-01-25T14:12:49.270Z,3.95
2019-01-25T14:15:17.576Z,4.58
2019-01-25T14:17:45.619Z,4.50
2019-01-25T14:20:23.217Z,3.85
2019-01-25T14:22:47.190Z,4.05
2019-01-25T14:25:15.504Z,4.47
2019-01-25T14:27:43.852Z,4.28
2019-01-25T14:30:20.194Z,4.17
2019-01-25T14:32:48.234Z,3.77
2019-01-25T14:35:16.339Z,4.25
2019-01-25T14:37:44.400Z,4.30
2019-01-25T14:40:12.604Z,4.40
2019-01-25T14:42:40.895Z,3.95
2019-01-25T14:45:09.977Z,3.93
2019-01-25T14:47:38.079Z,4.33
2019-01-25T14:50:11.296Z,4.03
2019-01-25T14:52:39.365Z,3.90
2019-01-25T14:55:07.543Z,3.90
2019-01-25T14:57:35.577Z,4.33
2019-01-25T15:00:05.427Z,3.98
2019-01-25T15:02:34.472Z,3.62
2019-01-25T15:05:04.250Z,4.28
2019-01-25T15:07:32.306Z,4.55
2019-01-25T15:10:00.385Z,4.03
2019-01-25T15:12:28.417Z,3.83
2019-01-25T15:14:56.499Z,3.87
2019-01-25T15:17:24.560Z,4.03
2019-01-25T15:19:54.482Z,4.40
2019-01-25T15:22:22.633Z,3.95
2019-01-25T15:24:50.735Z,3.98
2019-01-25T15:27:19.100Z,3.95
2019-01-25T15:29:47.230Z,3.95
2019-01-25T15:32:15.439Z,4.05
2019-01-25T15:34:45.351Z,4.15
2019-01-25T15:37:14.688Z,3.67
2019-01-25T15:39:42.831Z,4.05
2019-01-25T15:42:11.091Z,4.15
2019-01-25T15:44:39.216Z,3.98
2019-01-25T15:47:07.661Z,4.08
2019-01-25T15:49:35.799Z,4.15
2019-01-25T15:52:04.389Z,4.03
2019-01-25T15:54:32.577Z,3.77
2019-01-25T15:57:00.697Z,3.92
2019-01-25T15:59:29.268Z,3.90
2019-01-25T16:01:57.352Z,3.92
2019-01-25T16:04:25.480Z,3.47
2019-01-25T16:06:53.830Z,4.05
2019-01-25T16:09:23.689Z,4.40
2019-01-25T16:11:51.897Z,4.08
2019-01-25T16:14:22.970Z,5.08
2019-01-25T16:16:52.213Z,4.50
2019-01-25T16:19:20.277Z,4.97
2019-01-25T16:21:48.365Z,4.83
2019-01-25T16:24:16.412Z,4.40
2019-01-25T16:26:44.716Z,4.58
2019-01-25T16:29:13.597Z,5.25
2019-01-25T16:31:43.950Z,4.47
2019-01-25T16:34:13.129Z,4.53
2019-01-25T16:36:41.277Z,4.35
2019-01-25T16:39:10.418Z,4.25
2019-01-25T16:41:38.552Z,4.08
2019-01-25T16:44:06.851Z,3.45
2019-01-25T16:46:35.125Z,3.98
2019-01-25T16:49:03.261Z,4.15
2019-01-25T16:51:31.380Z,4.03
2019-01-25T16:54:01.897Z,3.62
2019-01-25T16:56:30.009Z,3.75
2019-01-25T16:58:59.304Z,4.03
2019-01-25T17:01:28.580Z,3.50
2019-01-25T17:03:56.658Z,3.65
2019-01-25T17:06:24.746Z,3.70
2019-01-25T17:08:52.779Z,4.03
2019-01-25T17:11:22.897Z,3.65
2019-01-25T17:13:50.975Z,3.60
2019-01-25T17:16:19.279Z,3.87
2019-01-25T17:18:47.338Z,3.87
2019-01-25T17:21:15.444Z,4.30
2019-01-25T17:23:43.514Z,3.90
2019-01-25T17:26:11.637Z,3.90
2019-01-25T17:28:39.867Z,3.83
2019-01-25T17:31:08.118Z,3.42
2019-01-25T17:33:36.140Z,3.42
2019-01-25T17:36:04.241Z,3.60
2019-01-25T17:38:32.362Z,3.37
2019-01-25T17:41:00.672Z,3.55
2019-01-25T17:43:30.266Z,3.87
2019-01-25T17:45:58.485Z,3.80
2019-01-25T17:48:27.030Z,3.27
2019-01-25T17:50:55.171Z,3.60
2019-01-25T17:53:24.524Z,3.90
2019-01-25T17:55:52.973Z,4.20
2019-01-25T17:58:21.137Z,3.90
2019-01-25T18:00:52.864Z,4.12
2019-01-25T18:03:21.049Z,4.37
2019-01-25T18:05:49.186Z,4.15
2019-01-25T18:08:17.576Z,3.80
2019-01-25T18:10:45.753Z,3.72
2019-01-25T18:13:13.891Z,3.85
2019-01-25T18:15:43.002Z,3.85
2019-01-25T18:18:11.317Z,4.28
2019-01-25T18:20:40.497Z,4.20
2019-01-25T18:23:08.602Z,4.05
2019-01-25T18:25:53.636Z,3.70
2019-01-25T18:28:27.286Z,4.10
2019-01-25T18:31:02.012Z,3.72
2019-01-25T18:33:31.280Z,3.72
2019-01-25T18:35:59.631Z,3.70
2019-01-25T18:38:28.041Z,3.30
2019-01-25T18:40:56.298Z,3.40
2019-01-25T18:43:24.482Z,3.22
2019-01-25T19:35:20.728Z,3.13
2019-01-25T19:37:48.958Z,3.45
2019-01-25T19:40:18.674Z,3.70
2019-01-25T19:42:47.390Z,3.45
2019-01-25T19:45:25.163Z,3.67
2019-01-25T19:47:53.411Z,3.12
2019-01-25T19:50:21.818Z,3.55
2019-01-25T19:52:50.416Z,3.65
2019-01-25T19:55:23.809Z,3.45
2019-01-25T19:57:52.572Z,3.37
2019-01-25T20:00:38.865Z,3.75
2019-01-25T20:03:07.884Z,3.27
2019-01-25T20:05:49.573Z,3.52
2019-01-25T20:08:17.852Z,3.52
2019-01-25T20:10:46.307Z,4.00
2019-01-25T20:13:14.420Z,3.58
2019-01-25T20:15:42.453Z,3.40
2019-01-25T20:18:10.680Z,3.40
2019-01-25T20:20:39.003Z,3.47
2019-01-25T20:23:07.184Z,3.83
2019-01-25T20:25:35.237Z,2.92
2019-01-25T20:28:05.133Z,3.60
2019-01-25T20:30:33.318Z,3.17
2019-01-25T20:33:06.120Z,3.43
2019-01-25T20:35:41.843Z,3.15
2019-01-25T20:38:10.558Z,3.02
2019-01-25T20:40:38.811Z,3.20
2019-01-25T20:43:07.013Z,3.67
2019-01-25T20:45:37.486Z,3.47
2019-01-25T20:48:06.879Z,3.70
2019-01-25T20:50:35.465Z,3.52
2019-01-25T20:53:04.673Z,3.72
2019-01-25T20:55:32.826Z,4.20
2019-01-25T20:58:01.027Z,3.80
2019-01-25T21:00:34.733Z,3.13
2019-01-25T21:03:17.329Z,3.55
2019-01-25T21:05:46.375Z,3.90
2019-01-25T21:08:14.421Z,3.90
2019-01-25T21:10:42.402Z,4.00
2019-01-25T21:13:10.455Z,3.25
2019-01-25T21:15:39.593Z,3.80
2019-01-25T21:18:08.007Z,3.05
2019-01-25T21:20:40.930Z,3.58
2019-01-25T21:23:08.983Z,3.25
2019-01-25T21:25:37.189Z,3.67
2019-01-25T21:28:05.507Z,3.15
2019-01-25T21:30:34.716Z,3.05
2019-01-25T21:33:04.922Z,2.70
2019-01-25T21:35:32.913Z,2.58
2019-01-25T21:38:02.352Z,2.47
2019-01-25T21:40:32.541Z,3.87
2019-01-25T21:43:00.789Z,2.98
2019-01-25T21:45:32.044Z,3.15
2019-01-25T21:48:02.195Z,2.43
2019-01-25T21:50:35.617Z,2.17
2019-01-25T21:53:04.876Z,2.10
2019-01-25T21:55:32.943Z,1.67
2019-01-25T21:58:05.504Z,2.60
2019-01-25T22:00:31.963Z,2.10
2019-01-25T22:03:00.078Z,2.08
2019-01-25T22:05:28.394Z,2.02
2019-01-25T22:07:56.452Z,2.00
2019-01-25T22:10:34.162Z,2.10
2019-01-25T22:13:02.225Z,2.08
2019-01-25T22:15:32.050Z,1.87
2019-01-25T22:18:00.087Z,2.10
2019-01-25T22:20:29.285Z,1.98
2019-01-25T22:22:57.711Z,2.20
2019-01-25T22:25:25.751Z,2.17
2019-01-25T22:27:55.707Z,1.82
2019-01-25T22:30:25.101Z,1.90
2019-01-25T22:32:53.682Z,2.22
2019-01-25T22:35:21.699Z,2.27
2019-01-25T22:37:49.701Z,1.80
2019-01-25T22:40:29.696Z,1.90
2019-01-25T22:42:58.259Z,2.00
2019-01-25T22:45:29.663Z,1.75
2019-01-25T22:47:59.626Z,2.05
2019-01-25T22:50:30.755Z,2.00
2019-01-25T22:52:58.756Z,2.05
2019-01-25T22:55:28.272Z,1.90
2019-01-25T22:57:56.310Z,2.20
2019-01-25T23:01:01.598Z,2.12
2019-01-25T23:03:45.403Z,2.22
2019-01-25T23:06:47.813Z,2.72
2019-01-25T23:09:32.590Z,2.17
2019-01-25T23:12:00.564Z,2.05
2019-01-25T23:14:28.629Z,2.15
2019-01-25T23:16:56.750Z,2.40
2019-01-25T23:19:24.815Z,2.60
2019-01-25T23:21:52.828Z,2.43
2019-01-25T23:24:20.848Z,2.22
2019-01-25T23:26:49.847Z,2.47
2019-01-25T23:29:17.917Z,2.80
2019-01-25T23:31:45.920Z,2.42
2019-01-25T23:34:13.934Z,2.50
2019-01-25T23:36:41.959Z,2.40
2019-01-25T23:39:10.855Z,2.17
2019-01-25T23:41:38.850Z,3.05
2019-01-25T23:44:06.926Z,2.20
2019-01-25T23:46:34.908Z,2.47
2019-01-25T23:49:02.963Z,2.77
2019-01-25T23:51:30.996Z,2.37
2019-01-25T23:54:00.009Z,2.00
2019-01-25T23:56:28.020Z,2.75
2019-01-25T23:58:56.315Z,2.50
